KSJN

St Johns Industrial Airpark

St Johns, Arizona, USA
METAR KSJN 210354Z AUTO 22006KT 10SM FEW120 M01/M03 A2988 RMK AO2 SNE0259 SLP112 P0000 T10061033 TSNO
Observed Flight Rules
Jan-21 @ 03:54 UTC (39 minutes ago) Visual Flight Rules
Wind Visibility Clouds
220° at 6 knots 10 miles
  • Few at 12,000' AGL
Temperatures Readings Precipitation
Current -1°C / 30°F
Dewpoint -3°C / 27°F
Humidity 86%
Altimeter 29.88" Hg
Pressure 1011.2 hPa
Elevation 1745
Current Rain 0.005
METAR KSJN 210354Z AUTO 22006KT 10SM FEW120 M01/M03 A2988 RMK AO2 SNE0259 SLP112 P0000 T10061033 TSNO
Observed Flight Rules
Jan-21 @ 03:54 UTC
(39 minutes ago)
VFR
Wind Visibility
220° at 6 knots 10 miles
Clouds
  • Few at 12,000' AGL
Temperature Dewpoint
-1°C / 30°F -3°C / 27°F
Humidity Altimeter Pressure
86% 29.88" Hg 1011.2 hPa
Current Rain
0.005